KMYV/MYV METAR and TAF weather

Enter ICAO airport designator
Station Type Date Time Source
KMYV METAR 2019/08/23 15:53 UTC NOAA

KMYV 231553Z AUTO 16006KT 10SM CLR 26/16 A2975 RMK AO2 SLP077 T02610156


Station Type Date Time Source
KMYV Decoded METAR 2019/08/23 15:53 UTC NOAA

Station name not available
Aug 23, 2019 - 11:53 AM EDT / 2019.08.23 1553 UTC
Wind: from the SSE (160 degrees) at 7 MPH (6 KT):0
Visibility: 10 mile(s):0
Sky conditions: clear
Temperature: 79.0 F (26.1 C)
Dew Point: 60.1 F (15.6 C)
Relative Humidity: 52%
Pressure (altimeter): 29.75 in. Hg (1007 hPa)
ob: KMYV 231553Z AUTO 16006KT 10SM CLR 26/16 A2975 RMK AO2 SLP077 T02610156
cycle: 16

Station Type Date Time Source
KMYV TAF UTC NOAA

Error!

Example: see airport list